sensor_id;sensor_type;location;lat;lon;timestamp;P1;durP1;ratioP1;P2;durP2;ratioP2
7375;SDS011;3728;42.266;24.944;2022-10-29T00:01:03;9.40;;;5.30;;
7375;SDS011;3728;42.266;24.944;2022-10-29T00:03:30;7.60;;;5.63;;
7375;SDS011;3728;42.266;24.944;2022-10-29T00:05:59;8.90;;;5.80;;
7375;SDS011;3728;42.266;24.944;2022-10-29T00:08:30;8.97;;;5.50;;
7375;SDS011;3728;42.266;24.944;2022-10-29T00:13:38;6.20;;;5.57;;
7375;SDS011;3728;42.266;24.944;2022-10-29T00:16:12;8.67;;;6.03;;
7375;SDS011;3728;42.266;24.944;2022-10-29T00:18:44;10.73;;;6.27;;
7375;SDS011;3728;42.266;24.944;2022-10-29T00:21:13;10.67;;;6.30;;
7375;SDS011;3728;42.266;24.944;2022-10-29T00:23:47;9.67;;;6.60;;
7375;SDS011;3728;42.266;24.944;2022-10-29T00:26:16;10.60;;;6.07;;
7375;SDS011;3728;42.266;24.944;2022-10-29T00:28:46;10.60;;;6.87;;
7375;SDS011;3728;42.266;24.944;2022-10-29T00:31:18;10.67;;;6.80;;
7375;SDS011;3728;42.266;24.944;2022-10-29T00:33:53;13.33;;;7.67;;
7375;SDS011;3728;42.266;24.944;2022-10-29T00:36:22;10.67;;;7.00;;
7375;SDS011;3728;42.266;24.944;2022-10-29T00:38:53;13.37;;;7.17;;
7375;SDS011;3728;42.266;24.944;2022-10-29T00:41:23;13.90;;;8.20;;
7375;SDS011;3728;42.266;24.944;2022-10-29T00:46:40;14.60;;;7.27;;
7375;SDS011;3728;42.266;24.944;2022-10-29T00:49:17;12.73;;;7.83;;
7375;SDS011;3728;42.266;24.944;2022-10-29T00:51:45;17.27;;;8.10;;
7375;SDS011;3728;42.266;24.944;2022-10-29T00:54:14;15.20;;;8.37;;
7375;SDS011;3728;42.266;24.944;2022-10-29T00:56:46;17.40;;;8.47;;
7375;SDS011;3728;42.266;24.944;2022-10-29T00:59:21;15.47;;;8.50;;
7375;SDS011;3728;42.266;24.944;2022-10-29T01:01:50;19.10;;;9.13;;
7375;SDS011;3728;42.266;24.944;2022-10-29T01:04:21;19.73;;;9.03;;
7375;SDS011;3728;42.266;24.944;2022-10-29T01:06:51;13.87;;;8.90;;
7375;SDS011;3728;42.266;24.944;2022-10-29T01:09:19;14.83;;;8.10;;
7375;SDS011;3728;42.266;24.944;2022-10-29T01:32:11;25.20;;;7.73;;
7375;SDS011;3728;42.266;24.944;2022-10-29T01:37:29;21.87;;;8.50;;
7375;SDS011;3728;42.266;24.944;2022-10-29T01:40:33;15.60;;;8.67;;
7375;SDS011;3728;42.266;24.944;2022-10-29T01:43:33;17.43;;;8.40;;
7375;SDS011;3728;42.266;24.944;2022-10-29T01:48:56;21.97;;;8.37;;
7375;SDS011;3728;42.266;24.944;2022-10-29T01:51:30;11.27;;;6.87;;
7375;SDS011;3728;42.266;24.944;2022-10-29T01:54:00;11.57;;;6.67;;
7375;SDS011;3728;42.266;24.944;2022-10-29T01:56:35;16.20;;;6.83;;
7375;SDS011;3728;42.266;24.944;2022-10-29T01:59:05;15.77;;;7.53;;
7375;SDS011;3728;42.266;24.944;2022-10-29T02:05:19;16.27;;;7.60;;
7375;SDS011;3728;42.266;24.944;2022-10-29T02:11:01;9.80;;;6.80;;
7375;SDS011;3728;42.266;24.944;2022-10-29T02:16:24;7.87;;;5.90;;
7375;SDS011;3728;42.266;24.944;2022-10-29T02:18:53;12.93;;;6.50;;
7375;SDS011;3728;42.266;24.944;2022-10-29T02:21:23;11.43;;;6.27;;
7375;SDS011;3728;42.266;24.944;2022-10-29T02:23:50;13.07;;;6.87;;
7375;SDS011;3728;42.266;24.944;2022-10-29T02:26:18;10.73;;;6.47;;
7375;SDS011;3728;42.266;24.944;2022-10-29T02:28:47;15.43;;;7.20;;
7375;SDS011;3728;42.266;24.944;2022-10-29T02:31:14;20.93;;;7.50;;
7375;SDS011;3728;42.266;24.944;2022-10-29T02:33:42;10.57;;;6.37;;
7375;SDS011;3728;42.266;24.944;2022-10-29T02:36:09;9.00;;;6.13;;
7375;SDS011;3728;42.266;24.944;2022-10-29T02:38:37;10.17;;;6.27;;
7375;SDS011;3728;42.266;24.944;2022-10-29T02:41:04;14.93;;;6.03;;
7375;SDS011;3728;42.266;24.944;2022-10-29T02:43:32;12.57;;;6.23;;
7375;SDS011;3728;42.266;24.944;2022-10-29T02:48:56;10.33;;;5.73;;
7375;SDS011;3728;42.266;24.944;2022-10-29T02:51:24;7.77;;;5.90;;
7375;SDS011;3728;42.266;24.944;2022-10-29T02:53:51;9.13;;;5.80;;
7375;SDS011;3728;42.266;24.944;2022-10-29T02:56:19;10.73;;;6.13;;
7375;SDS011;3728;42.266;24.944;2022-10-29T02:58:47;12.40;;;5.97;;
7375;SDS011;3728;42.266;24.944;2022-10-29T03:01:15;9.37;;;6.00;;
7375;SDS011;3728;42.266;24.944;2022-10-29T03:03:42;7.87;;;5.83;;
7375;SDS011;3728;42.266;24.944;2022-10-29T03:06:13;10.57;;;5.60;;
7375;SDS011;3728;42.266;24.944;2022-10-29T03:08:42;10.73;;;5.80;;
7375;SDS011;3728;42.266;24.944;2022-10-29T03:11:11;12.00;;;5.93;;
7375;SDS011;3728;42.266;24.944;2022-10-29T03:13:39;11.60;;;6.00;;
7375;SDS011;3728;42.266;24.944;2022-10-29T03:16:06;9.37;;;5.93;;
7375;SDS011;3728;42.266;24.944;2022-10-29T03:18:35;9.43;;;5.90;;
7375;SDS011;3728;42.266;24.944;2022-10-29T03:21:03;10.83;;;6.43;;
7375;SDS011;3728;42.266;24.944;2022-10-29T03:23:30;19.00;;;7.17;;
7375;SDS011;3728;42.266;24.944;2022-10-29T03:25:58;26.23;;;10.47;;
7375;SDS011;3728;42.266;24.944;2022-10-29T03:28:25;20.90;;;11.40;;
7375;SDS011;3728;42.266;24.944;2022-10-29T03:30:53;33.73;;;11.17;;
7375;SDS011;3728;42.266;24.944;2022-10-29T03:33:22;23.03;;;11.20;;
7375;SDS011;3728;42.266;24.944;2022-10-29T03:35:58;26.07;;;11.37;;
7375;SDS011;3728;42.266;24.944;2022-10-29T03:38:32;19.67;;;9.37;;
7375;SDS011;3728;42.266;24.944;2022-10-29T03:41:00;18.17;;;8.77;;
7375;SDS011;3728;42.266;24.944;2022-10-29T03:43:34;20.30;;;9.60;;
7375;SDS011;3728;42.266;24.944;2022-10-29T03:46:05;15.50;;;8.67;;
7375;SDS011;3728;42.266;24.944;2022-10-29T03:48:33;18.53;;;10.00;;
7375;SDS011;3728;42.266;24.944;2022-10-29T03:51:01;23.97;;;11.47;;
7375;SDS011;3728;42.266;24.944;2022-10-29T03:53:31;48.67;;;27.33;;
7375;SDS011;3728;42.266;24.944;2022-10-29T03:56:01;34.30;;;19.00;;
7375;SDS011;3728;42.266;24.944;2022-10-29T03:58:30;23.30;;;14.17;;
7375;SDS011;3728;42.266;24.944;2022-10-29T04:00:58;30.07;;;15.47;;
7375;SDS011;3728;42.266;24.944;2022-10-29T04:03:29;27.60;;;11.80;;
7375;SDS011;3728;42.266;24.944;2022-10-29T04:05:59;20.23;;;10.40;;
7375;SDS011;3728;42.266;24.944;2022-10-29T04:08:35;19.23;;;9.90;;
7375;SDS011;3728;42.266;24.944;2022-10-29T04:11:03;17.20;;;9.80;;
7375;SDS011;3728;42.266;24.944;2022-10-29T04:13:33;17.63;;;9.87;;
7375;SDS011;3728;42.266;24.944;2022-10-29T04:16:00;17.27;;;10.37;;
7375;SDS011;3728;42.266;24.944;2022-10-29T04:18:28;15.77;;;9.70;;
7375;SDS011;3728;42.266;24.944;2022-10-29T04:20:59;22.70;;;10.47;;
7375;SDS011;3728;42.266;24.944;2022-10-29T04:23:48;22.10;;;12.60;;
7375;SDS011;3728;42.266;24.944;2022-10-29T04:26:36;27.20;;;13.17;;
7375;SDS011;3728;42.266;24.944;2022-10-29T04:29:24;22.37;;;11.87;;
7375;SDS011;3728;42.266;24.944;2022-10-29T04:31:52;54.97;;;22.10;;
7375;SDS011;3728;42.266;24.944;2022-10-29T04:34:19;53.10;;;22.70;;
7375;SDS011;3728;42.266;24.944;2022-10-29T04:36:47;34.77;;;16.07;;
7375;SDS011;3728;42.266;24.944;2022-10-29T04:39:15;21.40;;;12.10;;
7375;SDS011;3728;42.266;24.944;2022-10-29T04:41:47;17.40;;;10.20;;
7375;SDS011;3728;42.266;24.944;2022-10-29T04:44:15;24.33;;;12.03;;
7375;SDS011;3728;42.266;24.944;2022-10-29T04:46:42;61.40;;;19.30;;
7375;SDS011;3728;42.266;24.944;2022-10-29T04:49:10;98.00;;;22.43;;
7375;SDS011;3728;42.266;24.944;2022-10-29T04:51:37;70.07;;;22.47;;
7375;SDS011;3728;42.266;24.944;2022-10-29T04:54:05;80.00;;;37.13;;
7375;SDS011;3728;42.266;24.944;2022-10-29T04:56:32;99.50;;;44.57;;
7375;SDS011;3728;42.266;24.944;2022-10-29T04:59:00;97.73;;;44.30;;
7375;SDS011;3728;42.266;24.944;2022-10-29T05:01:28;97.30;;;43.87;;
7375;SDS011;3728;42.266;24.944;2022-10-29T05:03:56;93.77;;;41.67;;
7375;SDS011;3728;42.266;24.944;2022-10-29T05:06:25;96.00;;;42.03;;
7375;SDS011;3728;42.266;24.944;2022-10-29T05:08:53;66.10;;;26.63;;
7375;SDS011;3728;42.266;24.944;2022-10-29T05:11:20;94.80;;;26.90;;
7375;SDS011;3728;42.266;24.944;2022-10-29T05:13:48;115.23;;;25.47;;
7375;SDS011;3728;42.266;24.944;2022-10-29T05:16:15;95.00;;;22.40;;
7375;SDS011;3728;42.266;24.944;2022-10-29T05:18:45;59.90;;;18.60;;
7375;SDS011;3728;42.266;24.944;2022-10-29T05:21:13;83.73;;;16.27;;
7375;SDS011;3728;42.266;24.944;2022-10-29T05:23:41;39.67;;;13.03;;
7375;SDS011;3728;42.266;24.944;2022-10-29T05:26:08;67.20;;;25.70;;
7375;SDS011;3728;42.266;24.944;2022-10-29T05:28:36;106.30;;;42.40;;
7375;SDS011;3728;42.266;24.944;2022-10-29T05:31:03;104.90;;;52.83;;
7375;SDS011;3728;42.266;24.944;2022-10-29T05:33:33;459.43;;;74.10;;
7375;SDS011;3728;42.266;24.944;2022-10-29T05:36:03;236.67;;;57.27;;
7375;SDS011;3728;42.266;24.944;2022-10-29T05:38:33;100.90;;;57.07;;
7375;SDS011;3728;42.266;24.944;2022-10-29T05:41:02;107.13;;;42.90;;
7375;SDS011;3728;42.266;24.944;2022-10-29T05:43:32;132.83;;;38.13;;
7375;SDS011;3728;42.266;24.944;2022-10-29T05:46:03;61.10;;;26.63;;
7375;SDS011;3728;42.266;24.944;2022-10-29T05:48:32;148.57;;;31.07;;
7375;SDS011;3728;42.266;24.944;2022-10-29T05:51:00;34.10;;;16.47;;
7375;SDS011;3728;42.266;24.944;2022-10-29T05:53:27;32.07;;;17.93;;
7375;SDS011;3728;42.266;24.944;2022-10-29T05:55:56;31.03;;;16.03;;
7375;SDS011;3728;42.266;24.944;2022-10-29T05:58:24;33.07;;;18.43;;
7375;SDS011;3728;42.266;24.944;2022-10-29T06:00:52;57.23;;;19.83;;
7375;SDS011;3728;42.266;24.944;2022-10-29T06:03:21;56.50;;;28.63;;
7375;SDS011;3728;42.266;24.944;2022-10-29T06:05:49;74.57;;;32.33;;
7375;SDS011;3728;42.266;24.944;2022-10-29T06:08:17;40.13;;;25.23;;
7375;SDS011;3728;42.266;24.944;2022-10-29T06:10:45;44.20;;;30.87;;
7375;SDS011;3728;42.266;24.944;2022-10-29T06:13:17;64.10;;;46.40;;
7375;SDS011;3728;42.266;24.944;2022-10-29T06:18:27;34.33;;;10.60;;
7375;SDS011;3728;42.266;24.944;2022-10-29T06:20:58;28.60;;;10.13;;
7375;SDS011;3728;42.266;24.944;2022-10-29T06:23:27;15.07;;;8.60;;
7375;SDS011;3728;42.266;24.944;2022-10-29T06:25:57;25.80;;;13.10;;
7375;SDS011;3728;42.266;24.944;2022-10-29T06:28:26;17.67;;;13.13;;
7375;SDS011;3728;42.266;24.944;2022-10-29T06:31:00;27.67;;;9.03;;
7375;SDS011;3728;42.266;24.944;2022-10-29T06:33:29;27.90;;;10.17;;
7375;SDS011;3728;42.266;24.944;2022-10-29T06:35:58;23.90;;;10.00;;
7375;SDS011;3728;42.266;24.944;2022-10-29T06:38:26;33.70;;;20.80;;
7375;SDS011;3728;42.266;24.944;2022-10-29T06:40:54;33.03;;;16.50;;
7375;SDS011;3728;42.266;24.944;2022-10-29T06:43:21;32.37;;;11.73;;
7375;SDS011;3728;42.266;24.944;2022-10-29T06:45:49;19.40;;;10.77;;
7375;SDS011;3728;42.266;24.944;2022-10-29T06:48:17;19.83;;;10.30;;
7375;SDS011;3728;42.266;24.944;2022-10-29T06:50:48;21.97;;;10.30;;
7375;SDS011;3728;42.266;24.944;2022-10-29T06:53:16;25.23;;;12.80;;
7375;SDS011;3728;42.266;24.944;2022-10-29T06:55:44;20.63;;;10.43;;
7375;SDS011;3728;42.266;24.944;2022-10-29T06:58:13;28.30;;;12.00;;
7375;SDS011;3728;42.266;24.944;2022-10-29T07:00:43;33.13;;;12.17;;
7375;SDS011;3728;42.266;24.944;2022-10-29T07:03:15;24.07;;;12.20;;
7375;SDS011;3728;42.266;24.944;2022-10-29T07:05:46;19.50;;;11.30;;
7375;SDS011;3728;42.266;24.944;2022-10-29T07:08:20;24.67;;;11.57;;
7375;SDS011;3728;42.266;24.944;2022-10-29T07:10:50;16.03;;;9.03;;
7375;SDS011;3728;42.266;24.944;2022-10-29T07:13:23;13.40;;;8.73;;
7375;SDS011;3728;42.266;24.944;2022-10-29T07:15:50;18.70;;;8.80;;
7375;SDS011;3728;42.266;24.944;2022-10-29T07:18:18;22.13;;;8.77;;
7375;SDS011;3728;42.266;24.944;2022-10-29T07:20:46;12.20;;;8.03;;
7375;SDS011;3728;42.266;24.944;2022-10-29T07:23:14;16.37;;;8.10;;
7375;SDS011;3728;42.266;24.944;2022-10-29T07:25:41;14.17;;;7.80;;
7375;SDS011;3728;42.266;24.944;2022-10-29T07:28:10;15.17;;;8.63;;
7375;SDS011;3728;42.266;24.944;2022-10-29T07:30:39;17.67;;;7.90;;
7375;SDS011;3728;42.266;24.944;2022-10-29T07:33:08;18.27;;;8.10;;
7375;SDS011;3728;42.266;24.944;2022-10-29T07:35:36;19.87;;;8.40;;
7375;SDS011;3728;42.266;24.944;2022-10-29T07:38:04;15.90;;;8.37;;
7375;SDS011;3728;42.266;24.944;2022-10-29T07:40:37;16.97;;;7.67;;
7375;SDS011;3728;42.266;24.944;2022-10-29T07:43:11;25.23;;;7.77;;
7375;SDS011;3728;42.266;24.944;2022-10-29T07:45:39;17.77;;;7.57;;
7375;SDS011;3728;42.266;24.944;2022-10-29T07:48:10;10.63;;;7.37;;
7375;SDS011;3728;42.266;24.944;2022-10-29T07:50:37;16.30;;;8.40;;
7375;SDS011;3728;42.266;24.944;2022-10-29T07:53:05;19.33;;;11.70;;
7375;SDS011;3728;42.266;24.944;2022-10-29T07:55:33;16.57;;;9.33;;
7375;SDS011;3728;42.266;24.944;2022-10-29T07:58:06;17.87;;;11.30;;
7375;SDS011;3728;42.266;24.944;2022-10-29T08:00:38;14.57;;;9.17;;
7375;SDS011;3728;42.266;24.944;2022-10-29T08:03:07;17.33;;;10.80;;
7375;SDS011;3728;42.266;24.944;2022-10-29T08:05:37;17.03;;;8.33;;
7375;SDS011;3728;42.266;24.944;2022-10-29T08:08:11;14.80;;;8.50;;
7375;SDS011;3728;42.266;24.944;2022-10-29T08:10:39;19.53;;;8.43;;
7375;SDS011;3728;42.266;24.944;2022-10-29T08:13:06;12.43;;;7.37;;
7375;SDS011;3728;42.266;24.944;2022-10-29T08:15:34;12.30;;;7.97;;
7375;SDS011;3728;42.266;24.944;2022-10-29T08:18:02;8.90;;;7.07;;
7375;SDS011;3728;42.266;24.944;2022-10-29T08:20:42;14.77;;;7.43;;
7375;SDS011;3728;42.266;24.944;2022-10-29T08:23:10;20.37;;;7.80;;
7375;SDS011;3728;42.266;24.944;2022-10-29T08:25:39;11.33;;;7.47;;
7375;SDS011;3728;42.266;24.944;2022-10-29T08:28:12;12.80;;;7.63;;
7375;SDS011;3728;42.266;24.944;2022-10-29T08:30:41;13.80;;;7.87;;
7375;SDS011;3728;42.266;24.944;2022-10-29T08:33:12;13.77;;;7.60;;
7375;SDS011;3728;42.266;24.944;2022-10-29T08:35:40;9.53;;;7.07;;
7375;SDS011;3728;42.266;24.944;2022-10-29T08:38:07;9.60;;;7.27;;
7375;SDS011;3728;42.266;24.944;2022-10-29T08:40:51;13.57;;;7.23;;
7375;SDS011;3728;42.266;24.944;2022-10-29T08:46:45;15.00;;;7.97;;
7375;SDS011;3728;42.266;24.944;2022-10-29T08:49:37;17.30;;;7.77;;
7375;SDS011;3728;42.266;24.944;2022-10-29T08:52:27;15.43;;;8.00;;
7375;SDS011;3728;42.266;24.944;2022-10-29T08:55:06;12.73;;;7.70;;
7375;SDS011;3728;42.266;24.944;2022-10-29T08:57:56;14.93;;;7.30;;
7375;SDS011;3728;42.266;24.944;2022-10-29T09:00:33;10.07;;;6.87;;
7375;SDS011;3728;42.266;24.944;2022-10-29T09:03:10;12.17;;;7.13;;
7375;SDS011;3728;42.266;24.944;2022-10-29T09:05:48;10.20;;;6.20;;
7375;SDS011;3728;42.266;24.944;2022-10-29T09:14:43;14.33;;;6.60;;
7375;SDS011;3728;42.266;24.944;2022-10-29T09:26:15;12.13;;;5.57;;
7375;SDS011;3728;42.266;24.944;2022-10-29T09:29:10;6.87;;;4.40;;
7375;SDS011;3728;42.266;24.944;2022-10-29T09:32:02;10.17;;;5.00;;
7375;SDS011;3728;42.266;24.944;2022-10-29T09:34:56;10.57;;;4.70;;
7375;SDS011;3728;42.266;24.944;2022-10-29T09:40:33;8.47;;;4.87;;
7375;SDS011;3728;42.266;24.944;2022-10-29T09:46:25;4.87;;;3.60;;
7375;SDS011;3728;42.266;24.944;2022-10-29T09:52:16;17.73;;;5.17;;
7375;SDS011;3728;42.266;24.944;2022-10-29T09:54:51;9.77;;;4.50;;
7375;SDS011;3728;42.266;24.944;2022-10-29T09:57:22;17.03;;;6.10;;
7375;SDS011;3728;42.266;24.944;2022-10-29T09:59:55;8.00;;;4.70;;
7375;SDS011;3728;42.266;24.944;2022-10-29T10:05:34;13.27;;;5.20;;
7375;SDS011;3728;42.266;24.944;2022-10-29T10:08:26;18.03;;;5.10;;
7375;SDS011;3728;42.266;24.944;2022-10-29T10:11:00;15.33;;;5.67;;
7375;SDS011;3728;42.266;24.944;2022-10-29T10:13:33;13.20;;;5.07;;
7375;SDS011;3728;42.266;24.944;2022-10-29T10:16:04;6.53;;;4.20;;
7375;SDS011;3728;42.266;24.944;2022-10-29T10:18:40;7.67;;;4.23;;
7375;SDS011;3728;42.266;24.944;2022-10-29T10:21:11;6.20;;;4.20;;
7375;SDS011;3728;42.266;24.944;2022-10-29T10:23:50;6.60;;;4.23;;
7375;SDS011;3728;42.266;24.944;2022-10-29T10:31:50;5.67;;;3.23;;
7375;SDS011;3728;42.266;24.944;2022-10-29T10:34:44;7.97;;;3.50;;
7375;SDS011;3728;42.266;24.944;2022-10-29T10:37:18;8.53;;;4.00;;
7375;SDS011;3728;42.266;24.944;2022-10-29T10:39:57;12.70;;;4.10;;
7375;SDS011;3728;42.266;24.944;2022-10-29T10:42:31;8.13;;;3.73;;
7375;SDS011;3728;42.266;24.944;2022-10-29T10:45:21;7.33;;;3.53;;
7375;SDS011;3728;42.266;24.944;2022-10-29T10:48:00;9.50;;;3.60;;
7375;SDS011;3728;42.266;24.944;2022-10-29T10:50:31;5.73;;;3.33;;
7375;SDS011;3728;42.266;24.944;2022-10-29T10:53:06;3.73;;;3.33;;
7375;SDS011;3728;42.266;24.944;2022-10-29T10:55:47;8.93;;;3.10;;
7375;SDS011;3728;42.266;24.944;2022-10-29T10:58:26;8.30;;;3.57;;
7375;SDS011;3728;42.266;24.944;2022-10-29T11:01:10;8.40;;;3.30;;
7375;SDS011;3728;42.266;24.944;2022-10-29T11:03:47;5.77;;;2.90;;
7375;SDS011;3728;42.266;24.944;2022-10-29T11:06:44;8.73;;;3.03;;
7375;SDS011;3728;42.266;24.944;2022-10-29T11:09:21;6.63;;;2.55;;
7375;SDS011;3728;42.266;24.944;2022-10-29T11:12:11;7.85;;;2.78;;
7375;SDS011;3728;42.266;24.944;2022-10-29T11:14:52;8.55;;;2.90;;
7375;SDS011;3728;42.266;24.944;2022-10-29T11:17:54;6.82;;;2.72;;
7375;SDS011;3728;42.266;24.944;2022-10-29T11:20:37;3.88;;;2.80;;
7375;SDS011;3728;42.266;24.944;2022-10-29T11:35:11;4.72;;;2.10;;
7375;SDS011;3728;42.266;24.944;2022-10-29T11:38:00;3.25;;;1.80;;
7375;SDS011;3728;42.266;24.944;2022-10-29T11:40:40;2.05;;;1.48;;
7375;SDS011;3728;42.266;24.944;2022-10-29T11:43:23;3.08;;;1.80;;
7375;SDS011;3728;42.266;24.944;2022-10-29T12:00:21;3.92;;;1.60;;
7375;SDS011;3728;42.266;24.944;2022-10-29T12:16:58;1.80;;;1.60;;
7375;SDS011;3728;42.266;24.944;2022-10-29T12:19:39;6.90;;;6.03;;
7375;SDS011;3728;42.266;24.944;2022-10-29T12:28:05;6.13;;;2.45;;
7375;SDS011;3728;42.266;24.944;2022-10-29T12:34:04;4.88;;;2.35;;
7375;SDS011;3728;42.266;24.944;2022-10-29T12:36:42;5.80;;;2.03;;
7375;SDS011;3728;42.266;24.944;2022-10-29T12:39:48;2.40;;;1.77;;
7375;SDS011;3728;42.266;24.944;2022-10-29T12:42:24;5.53;;;2.17;;
7375;SDS011;3728;42.266;24.944;2022-10-29T12:48:38;6.40;;;2.00;;
7375;SDS011;3728;42.266;24.944;2022-10-29T12:51:50;5.30;;;2.00;;
7375;SDS011;3728;42.266;24.944;2022-10-29T12:59:42;3.00;;;2.03;;
7375;SDS011;3728;42.266;24.944;2022-10-29T13:02:17;8.73;;;2.05;;
7375;SDS011;3728;42.266;24.944;2022-10-29T13:16:00;4.25;;;1.80;;
7375;SDS011;3728;42.266;24.944;2022-10-29T13:33:49;6.47;;;1.75;;
7375;SDS011;3728;42.266;24.944;2022-10-29T13:38:42;2.90;;;1.55;;
7375;SDS011;3728;42.266;24.944;2022-10-29T13:41:19;2.00;;;1.70;;
7375;SDS011;3728;42.266;24.944;2022-10-29T13:49:29;4.90;;;1.73;;
7375;SDS011;3728;42.266;24.944;2022-10-29T13:52:21;2.38;;;1.67;;
7375;SDS011;3728;42.266;24.944;2022-10-29T14:00:50;9.45;;;2.83;;
7375;SDS011;3728;42.266;24.944;2022-10-29T14:06:15;8.02;;;2.28;;
7375;SDS011;3728;42.266;24.944;2022-10-29T14:09:10;2.92;;;1.85;;
7375;SDS011;3728;42.266;24.944;2022-10-29T14:11:57;3.60;;;1.83;;
7375;SDS011;3728;42.266;24.944;2022-10-29T14:14:40;5.55;;;2.13;;
7375;SDS011;3728;42.266;24.944;2022-10-29T14:17:21;16.27;;;2.85;;
7375;SDS011;3728;42.266;24.944;2022-10-29T14:23:08;4.63;;;2.30;;
7375;SDS011;3728;42.266;24.944;2022-10-29T14:25:35;6.72;;;2.42;;
7375;SDS011;3728;42.266;24.944;2022-10-29T14:28:15;15.75;;;2.72;;
7375;SDS011;3728;42.266;24.944;2022-10-29T14:33:43;11.25;;;2.42;;
7375;SDS011;3728;42.266;24.944;2022-10-29T14:41:58;4.97;;;1.83;;
7375;SDS011;3728;42.266;24.944;2022-10-29T14:44:28;13.45;;;2.72;;
7375;SDS011;3728;42.266;24.944;2022-10-29T14:47:03;12.48;;;2.15;;
7375;SDS011;3728;42.266;24.944;2022-10-29T14:49:45;14.45;;;2.80;;
7375;SDS011;3728;42.266;24.944;2022-10-29T14:55:05;6.82;;;2.13;;
7375;SDS011;3728;42.266;24.944;2022-10-29T15:03:32;15.90;;;3.58;;
7375;SDS011;3728;42.266;24.944;2022-10-29T15:06:10;18.05;;;3.42;;
7375;SDS011;3728;42.266;24.944;2022-10-29T15:08:42;20.27;;;5.80;;
7375;SDS011;3728;42.266;24.944;2022-10-29T15:11:36;25.73;;;5.28;;
7375;SDS011;3728;42.266;24.944;2022-10-29T15:17:06;31.15;;;4.18;;
7375;SDS011;3728;42.266;24.944;2022-10-29T15:19:57;22.83;;;5.05;;
7375;SDS011;3728;42.266;24.944;2022-10-29T15:22:36;34.08;;;4.18;;
7375;SDS011;3728;42.266;24.944;2022-10-29T15:25:06;30.67;;;4.35;;
7375;SDS011;3728;42.266;24.944;2022-10-29T15:27:42;34.13;;;4.05;;
7375;SDS011;3728;42.266;24.944;2022-10-29T15:30:17;32.40;;;4.18;;
7375;SDS011;3728;42.266;24.944;2022-10-29T15:32:47;28.48;;;4.25;;
7375;SDS011;3728;42.266;24.944;2022-10-29T15:35:19;26.77;;;4.43;;
7375;SDS011;3728;42.266;24.944;2022-10-29T15:37:48;23.33;;;3.75;;
7375;SDS011;3728;42.266;24.944;2022-10-29T15:40:18;14.90;;;3.33;;
7375;SDS011;3728;42.266;24.944;2022-10-29T15:42:51;20.98;;;3.35;;
7375;SDS011;3728;42.266;24.944;2022-10-29T15:45:22;29.98;;;4.30;;
7375;SDS011;3728;42.266;24.944;2022-10-29T15:47:56;36.33;;;4.45;;
7375;SDS011;3728;42.266;24.944;2022-10-29T15:50:55;33.58;;;4.53;;
7375;SDS011;3728;42.266;24.944;2022-10-29T15:53:24;39.28;;;5.50;;
7375;SDS011;3728;42.266;24.944;2022-10-29T15:55:53;26.35;;;4.30;;
7375;SDS011;3728;42.266;24.944;2022-10-29T15:58:24;28.67;;;4.33;;
7375;SDS011;3728;42.266;24.944;2022-10-29T16:00:51;22.00;;;5.10;;
7375;SDS011;3728;42.266;24.944;2022-10-29T16:03:23;24.13;;;4.67;;
7375;SDS011;3728;42.266;24.944;2022-10-29T16:05:52;23.27;;;5.10;;
7375;SDS011;3728;42.266;24.944;2022-10-29T16:11:00;34.10;;;5.27;;
7375;SDS011;3728;42.266;24.944;2022-10-29T16:13:37;35.37;;;5.37;;
7375;SDS011;3728;42.266;24.944;2022-10-29T16:16:15;24.73;;;5.70;;
7375;SDS011;3728;42.266;24.944;2022-10-29T16:18:49;33.27;;;6.57;;
7375;SDS011;3728;42.266;24.944;2022-10-29T16:21:21;26.03;;;12.20;;
7375;SDS011;3728;42.266;24.944;2022-10-29T16:23:55;31.50;;;12.17;;
7375;SDS011;3728;42.266;24.944;2022-10-29T16:26:29;39.60;;;16.03;;
7375;SDS011;3728;42.266;24.944;2022-10-29T16:29:01;34.37;;;18.23;;
7375;SDS011;3728;42.266;24.944;2022-10-29T16:31:28;35.57;;;19.30;;
7375;SDS011;3728;42.266;24.944;2022-10-29T16:34:00;36.83;;;19.47;;
7375;SDS011;3728;42.266;24.944;2022-10-29T16:36:30;37.50;;;19.93;;
7375;SDS011;3728;42.266;24.944;2022-10-29T16:38:59;32.97;;;19.07;;
7375;SDS011;3728;42.266;24.944;2022-10-29T16:41:28;42.00;;;20.37;;
7375;SDS011;3728;42.266;24.944;2022-10-29T16:43:59;37.83;;;21.07;;
7375;SDS011;3728;42.266;24.944;2022-10-29T16:46:27;32.20;;;19.10;;
7375;SDS011;3728;42.266;24.944;2022-10-29T16:48:56;29.07;;;18.07;;
7375;SDS011;3728;42.266;24.944;2022-10-29T16:51:24;32.00;;;17.93;;
7375;SDS011;3728;42.266;24.944;2022-10-29T16:53:51;32.27;;;18.90;;
7375;SDS011;3728;42.266;24.944;2022-10-29T16:56:19;28.40;;;17.43;;
7375;SDS011;3728;42.266;24.944;2022-10-29T16:58:47;27.10;;;16.33;;
7375;SDS011;3728;42.266;24.944;2022-10-29T17:01:15;27.20;;;16.63;;
7375;SDS011;3728;42.266;24.944;2022-10-29T17:03:43;34.07;;;16.80;;
7375;SDS011;3728;42.266;24.944;2022-10-29T17:06:10;28.53;;;16.37;;
7375;SDS011;3728;42.266;24.944;2022-10-29T17:08:40;27.70;;;16.43;;
7375;SDS011;3728;42.266;24.944;2022-10-29T17:11:08;25.20;;;15.23;;
7375;SDS011;3728;42.266;24.944;2022-10-29T17:13:35;27.80;;;13.83;;
7375;SDS011;3728;42.266;24.944;2022-10-29T17:16:10;26.47;;;14.40;;
7375;SDS011;3728;42.266;24.944;2022-10-29T17:18:41;25.87;;;13.20;;
7375;SDS011;3728;42.266;24.944;2022-10-29T17:21:09;21.53;;;10.63;;
7375;SDS011;3728;42.266;24.944;2022-10-29T17:23:39;15.00;;;7.50;;
7375;SDS011;3728;42.266;24.944;2022-10-29T17:26:07;16.10;;;7.17;;
7375;SDS011;3728;42.266;24.944;2022-10-29T17:28:34;14.23;;;6.40;;
7375;SDS011;3728;42.266;24.944;2022-10-29T17:31:04;15.60;;;6.10;;
7375;SDS011;3728;42.266;24.944;2022-10-29T17:33:34;14.20;;;6.30;;
7375;SDS011;3728;42.266;24.944;2022-10-29T17:36:03;13.43;;;6.87;;
7375;SDS011;3728;42.266;24.944;2022-10-29T17:38:38;12.50;;;7.03;;
7375;SDS011;3728;42.266;24.944;2022-10-29T17:41:06;11.13;;;6.40;;
7375;SDS011;3728;42.266;24.944;2022-10-29T17:43:38;8.87;;;5.77;;
7375;SDS011;3728;42.266;24.944;2022-10-29T17:46:05;7.47;;;5.07;;
7375;SDS011;3728;42.266;24.944;2022-10-29T17:48:33;12.40;;;4.67;;
7375;SDS011;3728;42.266;24.944;2022-10-29T17:51:02;12.00;;;4.70;;
7375;SDS011;3728;42.266;24.944;2022-10-29T17:53:30;13.93;;;5.23;;
7375;SDS011;3728;42.266;24.944;2022-10-29T17:55:58;19.63;;;6.07;;
7375;SDS011;3728;42.266;24.944;2022-10-29T17:58:26;13.10;;;5.20;;
7375;SDS011;3728;42.266;24.944;2022-10-29T18:00:54;11.77;;;5.77;;
7375;SDS011;3728;42.266;24.944;2022-10-29T18:04:00;26.30;;;12.00;;
7375;SDS011;3728;42.266;24.944;2022-10-29T18:06:32;21.10;;;8.47;;
7375;SDS011;3728;42.266;24.944;2022-10-29T18:08:59;19.87;;;5.83;;
7375;SDS011;3728;42.266;24.944;2022-10-29T18:11:27;9.90;;;4.80;;
7375;SDS011;3728;42.266;24.944;2022-10-29T18:13:58;12.97;;;4.67;;
7375;SDS011;3728;42.266;24.944;2022-10-29T18:16:29;11.40;;;4.00;;
7375;SDS011;3728;42.266;24.944;2022-10-29T18:18:59;9.70;;;4.80;;
7375;SDS011;3728;42.266;24.944;2022-10-29T18:21:29;21.73;;;4.30;;
7375;SDS011;3728;42.266;24.944;2022-10-29T18:24:00;7.63;;;3.23;;
7375;SDS011;3728;42.266;24.944;2022-10-29T18:29:09;5.93;;;2.80;;
7375;SDS011;3728;42.266;24.944;2022-10-29T18:31:38;3.53;;;2.77;;
7375;SDS011;3728;42.266;24.944;2022-10-29T18:34:13;4.33;;;2.53;;
7375;SDS011;3728;42.266;24.944;2022-10-29T18:36:42;4.47;;;2.60;;
7375;SDS011;3728;42.266;24.944;2022-10-29T18:39:14;2.40;;;2.20;;
7375;SDS011;3728;42.266;24.944;2022-10-29T18:41:43;3.13;;;2.77;;
7375;SDS011;3728;42.266;24.944;2022-10-29T18:44:13;7.67;;;4.27;;
7375;SDS011;3728;42.266;24.944;2022-10-29T18:46:41;4.73;;;3.73;;
7375;SDS011;3728;42.266;24.944;2022-10-29T18:49:09;7.40;;;3.33;;
7375;SDS011;3728;42.266;24.944;2022-10-29T18:51:40;9.63;;;4.10;;
7375;SDS011;3728;42.266;24.944;2022-10-29T18:54:09;14.33;;;6.90;;